sensor_id;sensor_type;location;lat;lon;timestamp;temperature;humidity
20422;DHT22;10370;53.102;18.034;2023-05-07T00:02:41;6.00;99.90
20422;DHT22;10370;53.102;18.034;2023-05-07T00:08:10;6.00;99.90
20422;DHT22;10370;53.102;18.034;2023-05-07T00:13:38;6.00;99.90
20422;DHT22;10370;53.102;18.034;2023-05-07T00:19:01;5.90;99.90
20422;DHT22;10370;53.102;18.034;2023-05-07T00:24:26;5.80;99.90
20422;DHT22;10370;53.102;18.034;2023-05-07T00:29:57;5.70;99.90
20422;DHT22;10370;53.102;18.034;2023-05-07T00:35:21;5.60;99.90
20422;DHT22;10370;53.102;18.034;2023-05-07T00:40:44;5.60;99.90
20422;DHT22;10370;53.102;18.034;2023-05-07T00:46:13;5.50;99.90
20422;DHT22;10370;53.102;18.034;2023-05-07T00:51:40;5.40;99.90
20422;DHT22;10370;53.102;18.034;2023-05-07T00:57:05;5.30;99.90
20422;DHT22;10370;53.102;18.034;2023-05-07T01:02:40;5.10;99.90
20422;DHT22;10370;53.102;18.034;2023-05-07T01:08:09;5.10;99.90
20422;DHT22;10370;53.102;18.034;2023-05-07T01:14:09;5.00;99.90
20422;DHT22;10370;53.102;18.034;2023-05-07T01:20:31;5.00;99.90
20422;DHT22;10370;53.102;18.034;2023-05-07T01:26:38;4.90;99.90
20422;DHT22;10370;53.102;18.034;2023-05-07T01:39:51;4.80;99.90
20422;DHT22;10370;53.102;18.034;2023-05-07T01:45:41;4.50;99.90
20422;DHT22;10370;53.102;18.034;2023-05-07T02:04:16;4.30;99.90
20422;DHT22;10370;53.102;18.034;2023-05-07T02:10:01;4.30;99.90
20422;DHT22;10370;53.102;18.034;2023-05-07T02:15:21;4.20;99.90
20422;DHT22;10370;53.102;18.034;2023-05-07T02:20:44;4.10;99.90
20422;DHT22;10370;53.102;18.034;2023-05-07T02:26:10;4.20;99.90
20422;DHT22;10370;53.102;18.034;2023-05-07T02:31:54;4.40;99.90
20422;DHT22;10370;53.102;18.034;2023-05-07T02:37:31;4.40;99.90
20422;DHT22;10370;53.102;18.034;2023-05-07T02:42:57;4.40;99.90
20422;DHT22;10370;53.102;18.034;2023-05-07T02:48:25;4.30;99.90
20422;DHT22;10370;53.102;18.034;2023-05-07T02:54:08;4.30;99.90
20422;DHT22;10370;53.102;18.034;2023-05-07T02:59:49;4.10;99.90
20422;DHT22;10370;53.102;18.034;2023-05-07T03:05:35;3.90;99.90
20422;DHT22;10370;53.102;18.034;2023-05-07T03:11:18;3.80;99.90
20422;DHT22;10370;53.102;18.034;2023-05-07T03:17:14;3.80;99.90
20422;DHT22;10370;53.102;18.034;2023-05-07T03:23:03;3.70;99.90
20422;DHT22;10370;53.102;18.034;2023-05-07T03:28:54;3.70;99.90
20422;DHT22;10370;53.102;18.034;2023-05-07T03:34:29;3.60;99.90
20422;DHT22;10370;53.102;18.034;2023-05-07T03:40:01;3.80;99.90
20422;DHT22;10370;53.102;18.034;2023-05-07T03:45:44;3.90;99.90
20422;DHT22;10370;53.102;18.034;2023-05-07T03:51:27;4.10;99.90
20422;DHT22;10370;53.102;18.034;2023-05-07T03:56:50;4.10;99.90
20422;DHT22;10370;53.102;18.034;2023-05-07T04:02:40;4.30;99.90
20422;DHT22;10370;53.102;18.034;2023-05-07T04:08:22;4.50;99.90
20422;DHT22;10370;53.102;18.034;2023-05-07T04:14:10;4.60;99.90
20422;DHT22;10370;53.102;18.034;2023-05-07T04:19:36;4.80;99.90
20422;DHT22;10370;53.102;18.034;2023-05-07T04:24:59;5.10;99.90
20422;DHT22;10370;53.102;18.034;2023-05-07T04:30:43;5.40;99.90
20422;DHT22;10370;53.102;18.034;2023-05-07T04:36:09;5.90;99.90
20422;DHT22;10370;53.102;18.034;2023-05-07T04:41:36;6.60;99.90
20422;DHT22;10370;53.102;18.034;2023-05-07T04:46:59;8.50;99.90
20422;DHT22;10370;53.102;18.034;2023-05-07T04:52:24;11.20;99.90
20422;DHT22;10370;53.102;18.034;2023-05-07T04:57:50;13.30;99.90
20422;DHT22;10370;53.102;18.034;2023-05-07T05:03:13;14.50;99.90
20422;DHT22;10370;53.102;18.034;2023-05-07T05:08:56;15.10;99.90
20422;DHT22;10370;53.102;18.034;2023-05-07T05:14:44;15.70;99.90
20422;DHT22;10370;53.102;18.034;2023-05-07T05:20:10;16.00;99.90
20422;DHT22;10370;53.102;18.034;2023-05-07T05:25:57;17.60;99.90
20422;DHT22;10370;53.102;18.034;2023-05-07T05:31:39;18.60;99.90
20422;DHT22;10370;53.102;18.034;2023-05-07T05:37:14;18.30;99.90
20422;DHT22;10370;53.102;18.034;2023-05-07T05:43:09;18.90;99.90
20422;DHT22;10370;53.102;18.034;2023-05-07T05:48:34;18.40;99.90
20422;DHT22;10370;53.102;18.034;2023-05-07T05:54:04;19.40;99.90
20422;DHT22;10370;53.102;18.034;2023-05-07T05:59:46;19.40;99.90
20422;DHT22;10370;53.102;18.034;2023-05-07T06:05:12;17.30;99.90
20422;DHT22;10370;53.102;18.034;2023-05-07T06:10:36;13.00;99.90
20422;DHT22;10370;53.102;18.034;2023-05-07T06:15:58;11.50;99.90
20422;DHT22;10370;53.102;18.034;2023-05-07T06:21:22;10.60;99.90
20422;DHT22;10370;53.102;18.034;2023-05-07T06:27:03;10.50;99.90
20422;DHT22;10370;53.102;18.034;2023-05-07T06:32:57;10.60;99.90
20422;DHT22;10370;53.102;18.034;2023-05-07T06:38:38;10.20;99.90
20422;DHT22;10370;53.102;18.034;2023-05-07T06:44:02;10.40;99.90
20422;DHT22;10370;53.102;18.034;2023-05-07T06:49:26;10.40;99.90
20422;DHT22;10370;53.102;18.034;2023-05-07T06:55:10;10.00;99.90
20422;DHT22;10370;53.102;18.034;2023-05-07T07:00:35;10.30;99.90
20422;DHT22;10370;53.102;18.034;2023-05-07T07:05:59;10.30;99.90
20422;DHT22;10370;53.102;18.034;2023-05-07T07:11:49;10.00;99.90
20422;DHT22;10370;53.102;18.034;2023-05-07T15:23:12;14.30;96.00
20422;DHT22;10370;53.102;18.034;2023-05-07T15:28:38;14.50;96.00
20422;DHT22;10370;53.102;18.034;2023-05-07T15:34:06;14.50;95.30
20422;DHT22;10370;53.102;18.034;2023-05-07T15:39:31;14.50;94.80
20422;DHT22;10370;53.102;18.034;2023-05-07T15:44:55;14.70;95.00
20422;DHT22;10370;53.102;18.034;2023-05-07T15:50:18;14.60;94.60
20422;DHT22;10370;53.102;18.034;2023-05-07T15:55:46;14.40;94.30
20422;DHT22;10370;53.102;18.034;2023-05-07T16:01:12;14.30;94.40
20422;DHT22;10370;53.102;18.034;2023-05-07T16:06:38;14.30;94.30
20422;DHT22;10370;53.102;18.034;2023-05-07T16:12:04;14.30;93.50
20422;DHT22;10370;53.102;18.034;2023-05-07T16:17:31;14.30;94.30
20422;DHT22;10370;53.102;18.034;2023-05-07T16:22:58;14.30;93.80
20422;DHT22;10370;53.102;18.034;2023-05-07T16:28:21;14.40;94.70
20422;DHT22;10370;53.102;18.034;2023-05-07T16:33:48;14.40;94.90
20422;DHT22;10370;53.102;18.034;2023-05-07T16:39:13;14.40;94.00
20422;DHT22;10370;53.102;18.034;2023-05-07T16:44:38;14.40;94.40
20422;DHT22;10370;53.102;18.034;2023-05-07T16:50:00;14.30;94.40
20422;DHT22;10370;53.102;18.034;2023-05-07T16:55:27;14.30;95.40
20422;DHT22;10370;53.102;18.034;2023-05-07T17:00:59;14.30;94.50
20422;DHT22;10370;53.102;18.034;2023-05-07T17:06:27;14.30;94.60
20422;DHT22;10370;53.102;18.034;2023-05-07T17:11:59;14.20;94.00
20422;DHT22;10370;53.102;18.034;2023-05-07T17:17:30;14.10;94.50
20422;DHT22;10370;53.102;18.034;2023-05-07T17:22:54;14.00;94.90
20422;DHT22;10370;53.102;18.034;2023-05-07T17:28:20;13.90;95.70
20422;DHT22;10370;53.102;18.034;2023-05-07T17:33:43;13.90;95.10
20422;DHT22;10370;53.102;18.034;2023-05-07T17:39:09;13.80;95.40
20422;DHT22;10370;53.102;18.034;2023-05-07T17:44:34;13.70;95.70
20422;DHT22;10370;53.102;18.034;2023-05-07T17:50:00;13.60;96.40
20422;DHT22;10370;53.102;18.034;2023-05-07T17:55:28;13.50;96.80
20422;DHT22;10370;53.102;18.034;2023-05-07T18:00:56;13.40;97.40
20422;DHT22;10370;53.102;18.034;2023-05-07T18:06:22;13.20;97.30
20422;DHT22;10370;53.102;18.034;2023-05-07T18:11:48;13.00;99.30
20422;DHT22;10370;53.102;18.034;2023-05-07T18:17:23;12.70;99.90
20422;DHT22;10370;53.102;18.034;2023-05-07T18:22:54;12.40;99.90
20422;DHT22;10370;53.102;18.034;2023-05-07T18:28:30;12.10;99.90
20422;DHT22;10370;53.102;18.034;2023-05-07T18:33:56;11.70;99.90
20422;DHT22;10370;53.102;18.034;2023-05-07T18:39:24;11.50;99.90
20422;DHT22;10370;53.102;18.034;2023-05-07T18:44:56;11.20;99.90
20422;DHT22;10370;53.102;18.034;2023-05-07T18:50:27;10.90;99.90
20422;DHT22;10370;53.102;18.034;2023-05-07T18:55:54;10.70;99.90
20422;DHT22;10370;53.102;18.034;2023-05-07T19:01:23;10.40;99.90
20422;DHT22;10370;53.102;18.034;2023-05-07T19:06:47;10.30;99.90
20422;DHT22;10370;53.102;18.034;2023-05-07T19:12:14;10.10;99.90
20422;DHT22;10370;53.102;18.034;2023-05-07T19:17:39;9.80;99.90
20422;DHT22;10370;53.102;18.034;2023-05-07T19:23:11;9.60;99.90
20422;DHT22;10370;53.102;18.034;2023-05-07T19:28:40;9.40;99.90
20422;DHT22;10370;53.102;18.034;2023-05-07T19:34:08;9.20;99.90
20422;DHT22;10370;53.102;18.034;2023-05-07T19:39:35;9.10;99.90
20422;DHT22;10370;53.102;18.034;2023-05-07T19:45:13;8.90;99.90
20422;DHT22;10370;53.102;18.034;2023-05-07T19:50:40;8.70;99.90
20422;DHT22;10370;53.102;18.034;2023-05-07T19:56:09;8.50;99.90
20422;DHT22;10370;53.102;18.034;2023-05-07T20:01:42;8.30;99.90
20422;DHT22;10370;53.102;18.034;2023-05-07T20:07:10;8.20;99.90
20422;DHT22;10370;53.102;18.034;2023-05-07T20:12:37;8.10;99.90
20422;DHT22;10370;53.102;18.034;2023-05-07T20:17:59;7.90;99.90
20422;DHT22;10370;53.102;18.034;2023-05-07T20:23:26;7.70;99.90
20422;DHT22;10370;53.102;18.034;2023-05-07T20:28:56;7.60;99.90
20422;DHT22;10370;53.102;18.034;2023-05-07T20:34:21;7.40;99.90
20422;DHT22;10370;53.102;18.034;2023-05-07T20:39:51;7.20;99.90
20422;DHT22;10370;53.102;18.034;2023-05-07T20:45:18;6.90;99.90
20422;DHT22;10370;53.102;18.034;2023-05-07T20:50:49;6.80;99.90
20422;DHT22;10370;53.102;18.034;2023-05-07T20:56:15;6.70;99.90
20422;DHT22;10370;53.102;18.034;2023-05-07T21:01:44;6.70;99.90
20422;DHT22;10370;53.102;18.034;2023-05-07T21:07:11;6.60;99.90
20422;DHT22;10370;53.102;18.034;2023-05-07T21:12:37;6.60;99.90
20422;DHT22;10370;53.102;18.034;2023-05-07T21:18:02;6.40;99.90
20422;DHT22;10370;53.102;18.034;2023-05-07T21:23:29;6.40;99.90
20422;DHT22;10370;53.102;18.034;2023-05-07T21:28:55;6.20;99.90
20422;DHT22;10370;53.102;18.034;2023-05-07T21:34:20;6.10;99.90
20422;DHT22;10370;53.102;18.034;2023-05-07T21:39:46;6.00;99.90
20422;DHT22;10370;53.102;18.034;2023-05-07T21:45:12;5.90;99.90
20422;DHT22;10370;53.102;18.034;2023-05-07T21:50:42;5.80;99.90
20422;DHT22;10370;53.102;18.034;2023-05-07T21:56:10;5.70;99.90
20422;DHT22;10370;53.102;18.034;2023-05-07T22:01:35;5.50;99.90
20422;DHT22;10370;53.102;18.034;2023-05-07T22:07:03;5.40;99.90
20422;DHT22;10370;53.102;18.034;2023-05-07T22:12:27;5.30;99.90
20422;DHT22;10370;53.102;18.034;2023-05-07T22:17:53;5.30;99.90
20422;DHT22;10370;53.102;18.034;2023-05-07T22:23:16;5.20;99.90
20422;DHT22;10370;53.102;18.034;2023-05-07T22:28:41;5.10;99.90
20422;DHT22;10370;53.102;18.034;2023-05-07T22:34:05;5.00;99.90
20422;DHT22;10370;53.102;18.034;2023-05-07T22:39:33;4.80;99.90
20422;DHT22;10370;53.102;18.034;2023-05-07T22:45:00;4.80;99.90
20422;DHT22;10370;53.102;18.034;2023-05-07T22:50:28;4.70;99.90
20422;DHT22;10370;53.102;18.034;2023-05-07T22:55:56;4.50;99.90
20422;DHT22;10370;53.102;18.034;2023-05-07T23:01:21;4.30;99.90
20422;DHT22;10370;53.102;18.034;2023-05-07T23:06:46;4.20;99.90
20422;DHT22;10370;53.102;18.034;2023-05-07T23:12:14;4.10;99.90
20422;DHT22;10370;53.102;18.034;2023-05-07T23:17:39;4.10;99.90
20422;DHT22;10370;53.102;18.034;2023-05-07T23:23:12;4.00;99.90
20422;DHT22;10370;53.102;18.034;2023-05-07T23:28:55;3.90;99.90
20422;DHT22;10370;53.102;18.034;2023-05-07T23:34:22;3.80;99.90
20422;DHT22;10370;53.102;18.034;2023-05-07T23:39:53;3.80;99.90
20422;DHT22;10370;53.102;18.034;2023-05-07T23:45:18;3.70;99.90
20422;DHT22;10370;53.102;18.034;2023-05-07T23:50:44;3.60;99.90
20422;DHT22;10370;53.102;18.034;2023-05-07T23:56:08;3.60;99.90
